sensor_id;sensor_type;location;lat;lon;timestamp;temperature;humidity
48454;DHT22;34261;55.678;12.464;2023-08-31T00:01:49;14.80;99.90
48454;DHT22;34261;55.678;12.464;2023-08-31T00:04:15;14.80;99.90
48454;DHT22;34261;55.678;12.464;2023-08-31T00:06:42;14.80;99.90
48454;DHT22;34261;55.678;12.464;2023-08-31T00:09:13;14.80;99.90
48454;DHT22;34261;55.678;12.464;2023-08-31T00:11:39;14.80;99.90
48454;DHT22;34261;55.678;12.464;2023-08-31T00:14:05;14.70;99.90
48454;DHT22;34261;55.678;12.464;2023-08-31T00:16:35;14.80;99.90
48454;DHT22;34261;55.678;12.464;2023-08-31T00:19:02;14.80;99.90
48454;DHT22;34261;55.678;12.464;2023-08-31T00:21:28;14.80;99.90
48454;DHT22;34261;55.678;12.464;2023-08-31T00:23:59;14.70;99.90
48454;DHT22;34261;55.678;12.464;2023-08-31T00:26:29;14.70;99.90
48454;DHT22;34261;55.678;12.464;2023-08-31T00:28:57;14.70;99.90
48454;DHT22;34261;55.678;12.464;2023-08-31T00:31:25;14.60;99.90
48454;DHT22;34261;55.678;12.464;2023-08-31T00:34:02;14.60;99.90
48454;DHT22;34261;55.678;12.464;2023-08-31T00:36:32;14.50;99.90
48454;DHT22;34261;55.678;12.464;2023-08-31T00:39:09;14.50;99.90
48454;DHT22;34261;55.678;12.464;2023-08-31T00:41:36;14.50;99.90
48454;DHT22;34261;55.678;12.464;2023-08-31T00:44:04;14.60;99.90
48454;DHT22;34261;55.678;12.464;2023-08-31T00:46:31;14.50;99.90
48454;DHT22;34261;55.678;12.464;2023-08-31T00:49:01;14.50;99.90
48454;DHT22;34261;55.678;12.464;2023-08-31T00:51:32;14.50;99.90
48454;DHT22;34261;55.678;12.464;2023-08-31T00:54:00;14.50;99.90
48454;DHT22;34261;55.678;12.464;2023-08-31T00:56:35;14.50;99.90
48454;DHT22;34261;55.678;12.464;2023-08-31T00:59:01;14.40;99.90
48454;DHT22;34261;55.678;12.464;2023-08-31T01:01:39;14.40;99.90
48454;DHT22;34261;55.678;12.464;2023-08-31T01:10:12;14.30;99.90
48454;DHT22;34261;55.678;12.464;2023-08-31T01:13:02;14.40;99.90
48454;DHT22;34261;55.678;12.464;2023-08-31T01:15:37;14.30;99.90
48454;DHT22;34261;55.678;12.464;2023-08-31T01:18:16;14.30;99.90
48454;DHT22;34261;55.678;12.464;2023-08-31T01:23:54;14.30;99.90
48454;DHT22;34261;55.678;12.464;2023-08-31T01:26:31;14.30;99.90
48454;DHT22;34261;55.678;12.464;2023-08-31T01:28:59;14.30;99.90
48454;DHT22;34261;55.678;12.464;2023-08-31T01:31:28;14.40;99.90
48454;DHT22;34261;55.678;12.464;2023-08-31T01:33:57;14.40;99.90
48454;DHT22;34261;55.678;12.464;2023-08-31T01:36:33;14.40;99.90
48454;DHT22;34261;55.678;12.464;2023-08-31T01:41:58;14.50;99.90
48454;DHT22;34261;55.678;12.464;2023-08-31T01:44:44;14.50;99.90
48454;DHT22;34261;55.678;12.464;2023-08-31T01:47:22;14.60;99.90
48454;DHT22;34261;55.678;12.464;2023-08-31T01:49:50;14.60;99.90
48454;DHT22;34261;55.678;12.464;2023-08-31T01:52:17;14.60;99.90
48454;DHT22;34261;55.678;12.464;2023-08-31T01:54:44;14.60;99.90
48454;DHT22;34261;55.678;12.464;2023-08-31T01:57:13;14.70;99.90
48454;DHT22;34261;55.678;12.464;2023-08-31T01:59:46;14.70;99.90
48454;DHT22;34261;55.678;12.464;2023-08-31T02:02:19;14.70;99.90
48454;DHT22;34261;55.678;12.464;2023-08-31T02:04:48;14.70;99.90
48454;DHT22;34261;55.678;12.464;2023-08-31T02:07:18;14.70;99.90
48454;DHT22;34261;55.678;12.464;2023-08-31T02:09:44;14.70;99.90
48454;DHT22;34261;55.678;12.464;2023-08-31T02:12:14;14.70;99.90
48454;DHT22;34261;55.678;12.464;2023-08-31T02:14:40;14.80;99.90
48454;DHT22;34261;55.678;12.464;2023-08-31T02:17:10;14.80;99.90
48454;DHT22;34261;55.678;12.464;2023-08-31T02:19:38;14.90;99.90
48454;DHT22;34261;55.678;12.464;2023-08-31T02:22:07;14.90;99.90
48454;DHT22;34261;55.678;12.464;2023-08-31T02:24:54;14.90;99.90
48454;DHT22;34261;55.678;12.464;2023-08-31T02:27:22;14.90;99.90
48454;DHT22;34261;55.678;12.464;2023-08-31T02:29:53;14.80;99.90
48454;DHT22;34261;55.678;12.464;2023-08-31T02:32:21;14.80;99.90
48454;DHT22;34261;55.678;12.464;2023-08-31T02:34:49;14.70;99.90
48454;DHT22;34261;55.678;12.464;2023-08-31T02:37:18;14.70;99.90
48454;DHT22;34261;55.678;12.464;2023-08-31T02:39:48;14.70;99.90
48454;DHT22;34261;55.678;12.464;2023-08-31T02:42:18;14.70;99.90
48454;DHT22;34261;55.678;12.464;2023-08-31T02:44:59;14.60;99.90
48454;DHT22;34261;55.678;12.464;2023-08-31T02:47:29;14.60;99.90
48454;DHT22;34261;55.678;12.464;2023-08-31T02:49:55;14.60;99.90
48454;DHT22;34261;55.678;12.464;2023-08-31T02:52:25;14.50;99.90
48454;DHT22;34261;55.678;12.464;2023-08-31T02:54:57;14.40;99.90
48454;DHT22;34261;55.678;12.464;2023-08-31T02:57:25;14.40;99.90
48454;DHT22;34261;55.678;12.464;2023-08-31T02:59:55;14.40;99.90
48454;DHT22;34261;55.678;12.464;2023-08-31T03:02:23;14.40;99.90
48454;DHT22;34261;55.678;12.464;2023-08-31T03:05:00;14.30;99.90
48454;DHT22;34261;55.678;12.464;2023-08-31T03:07:28;14.30;99.90
48454;DHT22;34261;55.678;12.464;2023-08-31T03:10:30;14.30;99.90
48454;DHT22;34261;55.678;12.464;2023-08-31T03:13:17;14.30;99.90
48454;DHT22;34261;55.678;12.464;2023-08-31T03:15:59;14.20;99.90
48454;DHT22;34261;55.678;12.464;2023-08-31T03:18:29;14.30;99.90
48454;DHT22;34261;55.678;12.464;2023-08-31T03:21:03;14.30;99.90
48454;DHT22;34261;55.678;12.464;2023-08-31T03:23:31;14.30;99.90
48454;DHT22;34261;55.678;12.464;2023-08-31T03:25:57;14.20;99.90
48454;DHT22;34261;55.678;12.464;2023-08-31T03:28:23;14.20;99.90
48454;DHT22;34261;55.678;12.464;2023-08-31T03:30:56;14.10;99.90
48454;DHT22;34261;55.678;12.464;2023-08-31T03:33:24;14.20;99.90
48454;DHT22;34261;55.678;12.464;2023-08-31T03:35:51;14.20;99.90
48454;DHT22;34261;55.678;12.464;2023-08-31T03:38:22;14.20;99.90
48454;DHT22;34261;55.678;12.464;2023-08-31T03:41:02;14.20;99.90
48454;DHT22;34261;55.678;12.464;2023-08-31T03:43:29;14.20;99.90
48454;DHT22;34261;55.678;12.464;2023-08-31T03:46:01;14.20;99.90
48454;DHT22;34261;55.678;12.464;2023-08-31T03:48:30;14.10;99.90
48454;DHT22;34261;55.678;12.464;2023-08-31T03:50:56;14.20;99.90
48454;DHT22;34261;55.678;12.464;2023-08-31T03:53:22;14.10;99.90
48454;DHT22;34261;55.678;12.464;2023-08-31T03:55:48;14.10;99.90
48454;DHT22;34261;55.678;12.464;2023-08-31T03:58:17;14.10;99.90
48454;DHT22;34261;55.678;12.464;2023-08-31T04:00:42;14.10;99.90
48454;DHT22;34261;55.678;12.464;2023-08-31T04:03:09;14.10;99.90
48454;DHT22;34261;55.678;12.464;2023-08-31T04:05:35;14.10;99.90
48454;DHT22;34261;55.678;12.464;2023-08-31T04:08:01;14.10;99.90
48454;DHT22;34261;55.678;12.464;2023-08-31T04:10:28;14.00;99.90
48454;DHT22;34261;55.678;12.464;2023-08-31T04:12:55;14.10;99.90
48454;DHT22;34261;55.678;12.464;2023-08-31T04:15:21;14.10;99.90
48454;DHT22;34261;55.678;12.464;2023-08-31T04:17:47;14.10;99.90
48454;DHT22;34261;55.678;12.464;2023-08-31T04:20:14;14.10;99.90
48454;DHT22;34261;55.678;12.464;2023-08-31T04:22:40;14.20;99.90
48454;DHT22;34261;55.678;12.464;2023-08-31T04:25:06;14.20;99.90
48454;DHT22;34261;55.678;12.464;2023-08-31T04:27:31;14.20;99.90
48454;DHT22;34261;55.678;12.464;2023-08-31T04:30:00;14.20;99.90
48454;DHT22;34261;55.678;12.464;2023-08-31T04:32:26;14.20;99.90
48454;DHT22;34261;55.678;12.464;2023-08-31T04:34:53;14.20;99.90
48454;DHT22;34261;55.678;12.464;2023-08-31T04:37:20;14.20;99.90
48454;DHT22;34261;55.678;12.464;2023-08-31T04:39:46;14.20;99.90
48454;DHT22;34261;55.678;12.464;2023-08-31T04:42:13;14.30;99.90
48454;DHT22;34261;55.678;12.464;2023-08-31T04:44:39;14.30;99.90
48454;DHT22;34261;55.678;12.464;2023-08-31T04:47:05;14.30;99.90
48454;DHT22;34261;55.678;12.464;2023-08-31T04:49:30;14.30;99.90
48454;DHT22;34261;55.678;12.464;2023-08-31T04:51:57;14.30;99.90
48454;DHT22;34261;55.678;12.464;2023-08-31T04:54:23;14.40;99.90
48454;DHT22;34261;55.678;12.464;2023-08-31T04:56:49;14.40;99.90
48454;DHT22;34261;55.678;12.464;2023-08-31T04:59:15;14.40;99.90
48454;DHT22;34261;55.678;12.464;2023-08-31T05:01:41;14.40;99.90
48454;DHT22;34261;55.678;12.464;2023-08-31T05:04:06;14.50;99.90
48454;DHT22;34261;55.678;12.464;2023-08-31T05:06:32;14.50;99.90
48454;DHT22;34261;55.678;12.464;2023-08-31T05:08:58;14.60;99.90
48454;DHT22;34261;55.678;12.464;2023-08-31T05:11:24;14.60;99.90
48454;DHT22;34261;55.678;12.464;2023-08-31T05:13:50;14.60;99.90
48454;DHT22;34261;55.678;12.464;2023-08-31T05:16:15;14.70;99.90
48454;DHT22;34261;55.678;12.464;2023-08-31T05:18:41;14.70;99.90
48454;DHT22;34261;55.678;12.464;2023-08-31T05:21:07;14.80;99.90
48454;DHT22;34261;55.678;12.464;2023-08-31T05:23:35;14.80;99.90
48454;DHT22;34261;55.678;12.464;2023-08-31T05:26:00;14.80;99.90
48454;DHT22;34261;55.678;12.464;2023-08-31T05:28:27;14.90;99.90
48454;DHT22;34261;55.678;12.464;2023-08-31T05:30:55;15.00;99.90
48454;DHT22;34261;55.678;12.464;2023-08-31T05:33:21;15.00;99.90
48454;DHT22;34261;55.678;12.464;2023-08-31T05:35:52;15.10;99.90
48454;DHT22;34261;55.678;12.464;2023-08-31T05:38:18;15.10;99.90
48454;DHT22;34261;55.678;12.464;2023-08-31T05:40:44;15.10;99.90
48454;DHT22;34261;55.678;12.464;2023-08-31T05:43:20;15.20;99.90
48454;DHT22;34261;55.678;12.464;2023-08-31T05:45:46;15.40;99.90
48454;DHT22;34261;55.678;12.464;2023-08-31T05:48:12;15.50;99.90
48454;DHT22;34261;55.678;12.464;2023-08-31T05:50:38;15.70;99.90
48454;DHT22;34261;55.678;12.464;2023-08-31T05:53:04;15.80;99.90
48454;DHT22;34261;55.678;12.464;2023-08-31T05:59:24;16.10;99.90
48454;DHT22;34261;55.678;12.464;2023-08-31T06:02:20;16.20;99.90
48454;DHT22;34261;55.678;12.464;2023-08-31T06:08:35;16.50;99.90
48454;DHT22;34261;55.678;12.464;2023-08-31T06:11:22;16.60;99.90
48454;DHT22;34261;55.678;12.464;2023-08-31T06:14:08;16.70;99.90
48454;DHT22;34261;55.678;12.464;2023-08-31T07:23:44;18.50;99.90
48454;DHT22;34261;55.678;12.464;2023-08-31T07:26:10;18.10;99.90
48454;DHT22;34261;55.678;12.464;2023-08-31T07:28:35;17.90;99.90
48454;DHT22;34261;55.678;12.464;2023-08-31T07:31:05;17.70;99.90
48454;DHT22;34261;55.678;12.464;2023-08-31T07:33:33;17.50;99.90
48454;DHT22;34261;55.678;12.464;2023-08-31T07:36:04;17.40;99.90
48454;DHT22;34261;55.678;12.464;2023-08-31T07:43:42;17.10;99.90
48454;DHT22;34261;55.678;12.464;2023-08-31T08:13:29;16.70;99.90
48454;DHT22;34261;55.678;12.464;2023-08-31T08:16:01;16.70;99.90
48454;DHT22;34261;55.678;12.464;2023-08-31T08:18:35;16.60;99.90
48454;DHT22;34261;55.678;12.464;2023-08-31T08:21:04;16.60;99.90
48454;DHT22;34261;55.678;12.464;2023-08-31T08:23:30;16.60;99.90
48454;DHT22;34261;55.678;12.464;2023-08-31T08:26:17;16.50;99.90
48454;DHT22;34261;55.678;12.464;2023-08-31T08:28:43;16.50;99.90
48454;DHT22;34261;55.678;12.464;2023-08-31T08:31:08;16.50;99.90
48454;DHT22;34261;55.678;12.464;2023-08-31T08:33:34;16.60;99.90
48454;DHT22;34261;55.678;12.464;2023-08-31T08:36:00;16.60;99.90
48454;DHT22;34261;55.678;12.464;2023-08-31T08:38:27;16.70;99.90
48454;DHT22;34261;55.678;12.464;2023-08-31T08:40:53;16.70;99.90
48454;DHT22;34261;55.678;12.464;2023-08-31T08:43:25;16.70;99.90
48454;DHT22;34261;55.678;12.464;2023-08-31T08:45:52;16.70;99.90
48454;DHT22;34261;55.678;12.464;2023-08-31T08:48:18;16.70;99.90
48454;DHT22;34261;55.678;12.464;2023-08-31T08:50:45;16.70;99.90
48454;DHT22;34261;55.678;12.464;2023-08-31T08:53:11;16.70;99.90
48454;DHT22;34261;55.678;12.464;2023-08-31T08:55:37;16.70;99.90
48454;DHT22;34261;55.678;12.464;2023-08-31T08:58:03;16.80;99.90
48454;DHT22;34261;55.678;12.464;2023-08-31T09:00:30;16.80;99.90
48454;DHT22;34261;55.678;12.464;2023-08-31T09:02:56;16.80;99.90
48454;DHT22;34261;55.678;12.464;2023-08-31T09:05:22;17.00;99.90
48454;DHT22;34261;55.678;12.464;2023-08-31T09:08:08;17.00;99.90
48454;DHT22;34261;55.678;12.464;2023-08-31T09:10:43;17.10;99.90
48454;DHT22;34261;55.678;12.464;2023-08-31T09:13:14;17.00;99.90
48454;DHT22;34261;55.678;12.464;2023-08-31T09:15:44;17.00;99.90
48454;DHT22;34261;55.678;12.464;2023-08-31T09:18:23;17.00;99.90
48454;DHT22;34261;55.678;12.464;2023-08-31T09:20:49;17.00;99.90
48454;DHT22;34261;55.678;12.464;2023-08-31T09:23:15;17.00;99.90
48454;DHT22;34261;55.678;12.464;2023-08-31T09:25:43;16.90;99.90
48454;DHT22;34261;55.678;12.464;2023-08-31T09:28:22;16.90;99.90
48454;DHT22;34261;55.678;12.464;2023-08-31T09:30:49;16.90;99.90
48454;DHT22;34261;55.678;12.464;2023-08-31T09:33:18;16.90;99.90
48454;DHT22;34261;55.678;12.464;2023-08-31T09:35:53;16.90;99.90
48454;DHT22;34261;55.678;12.464;2023-08-31T09:38:19;16.90;99.90
48454;DHT22;34261;55.678;12.464;2023-08-31T09:40:45;16.90;99.90
48454;DHT22;34261;55.678;12.464;2023-08-31T09:43:12;17.00;99.90
48454;DHT22;34261;55.678;12.464;2023-08-31T09:45:47;17.00;99.90
48454;DHT22;34261;55.678;12.464;2023-08-31T09:48:15;17.00;99.90
48454;DHT22;34261;55.678;12.464;2023-08-31T09:50:49;17.10;99.90
48454;DHT22;34261;55.678;12.464;2023-08-31T09:53:17;17.10;99.90
48454;DHT22;34261;55.678;12.464;2023-08-31T09:55:47;17.10;99.90
48454;DHT22;34261;55.678;12.464;2023-08-31T09:58:21;17.20;99.90
48454;DHT22;34261;55.678;12.464;2023-08-31T10:00:57;17.10;99.90
48454;DHT22;34261;55.678;12.464;2023-08-31T10:03:23;17.00;99.90
48454;DHT22;34261;55.678;12.464;2023-08-31T10:09:16;17.00;99.90
48454;DHT22;34261;55.678;12.464;2023-08-31T10:12:17;17.00;99.90
48454;DHT22;34261;55.678;12.464;2023-08-31T10:15:36;17.00;99.90
48454;DHT22;34261;55.678;12.464;2023-08-31T10:18:05;17.10;99.90
48454;DHT22;34261;55.678;12.464;2023-08-31T10:20:32;17.10;99.90
48454;DHT22;34261;55.678;12.464;2023-08-31T10:23:06;17.10;99.90
48454;DHT22;34261;55.678;12.464;2023-08-31T10:29:03;17.10;99.90
48454;DHT22;34261;55.678;12.464;2023-08-31T10:31:33;17.10;99.90
48454;DHT22;34261;55.678;12.464;2023-08-31T10:34:05;17.10;99.90
48454;DHT22;34261;55.678;12.464;2023-08-31T10:39:18;17.20;99.90
48454;DHT22;34261;55.678;12.464;2023-08-31T10:41:56;17.20;99.90
48454;DHT22;34261;55.678;12.464;2023-08-31T10:44:23;17.20;99.90
48454;DHT22;34261;55.678;12.464;2023-08-31T10:46:50;17.30;99.90
48454;DHT22;34261;55.678;12.464;2023-08-31T10:49:19;17.30;99.90
48454;DHT22;34261;55.678;12.464;2023-08-31T10:57:07;17.40;99.90
48454;DHT22;34261;55.678;12.464;2023-08-31T11:00:09;17.30;99.90
48454;DHT22;34261;55.678;12.464;2023-08-31T11:02:46;17.30;99.90
48454;DHT22;34261;55.678;12.464;2023-08-31T11:07:43;17.30;99.90
48454;DHT22;34261;55.678;12.464;2023-08-31T11:10:25;17.30;99.90
48454;DHT22;34261;55.678;12.464;2023-08-31T11:12:55;17.40;99.90
48454;DHT22;34261;55.678;12.464;2023-08-31T11:15:26;17.30;99.90
48454;DHT22;34261;55.678;12.464;2023-08-31T11:17:53;17.40;99.90
48454;DHT22;34261;55.678;12.464;2023-08-31T11:20:20;17.40;99.90
48454;DHT22;34261;55.678;12.464;2023-08-31T11:22:49;17.40;99.90
48454;DHT22;34261;55.678;12.464;2023-08-31T11:25:16;17.30;99.90
48454;DHT22;34261;55.678;12.464;2023-08-31T11:27:52;17.30;99.90
48454;DHT22;34261;55.678;12.464;2023-08-31T11:30:18;17.40;99.90
48454;DHT22;34261;55.678;12.464;2023-08-31T11:32:47;17.40;99.90
48454;DHT22;34261;55.678;12.464;2023-08-31T11:35:14;17.40;99.90
48454;DHT22;34261;55.678;12.464;2023-08-31T11:37:42;17.50;99.90
48454;DHT22;34261;55.678;12.464;2023-08-31T11:40:08;17.60;99.90
48454;DHT22;34261;55.678;12.464;2023-08-31T11:42:34;17.70;99.90
48454;DHT22;34261;55.678;12.464;2023-08-31T11:45:00;17.70;99.90
48454;DHT22;34261;55.678;12.464;2023-08-31T11:47:33;17.80;99.90
48454;DHT22;34261;55.678;12.464;2023-08-31T11:50:00;17.80;99.90
48454;DHT22;34261;55.678;12.464;2023-08-31T11:52:31;17.80;99.90
48454;DHT22;34261;55.678;12.464;2023-08-31T11:54:58;17.70;99.90
48454;DHT22;34261;55.678;12.464;2023-08-31T11:57:27;17.80;99.90
48454;DHT22;34261;55.678;12.464;2023-08-31T11:59:56;17.80;99.90
48454;DHT22;34261;55.678;12.464;2023-08-31T12:02:22;17.90;99.90
48454;DHT22;34261;55.678;12.464;2023-08-31T12:04:48;18.00;99.90
48454;DHT22;34261;55.678;12.464;2023-08-31T12:07:19;17.90;99.90
48454;DHT22;34261;55.678;12.464;2023-08-31T12:10:14;18.00;99.90
48454;DHT22;34261;55.678;12.464;2023-08-31T12:12:42;18.00;99.90
48454;DHT22;34261;55.678;12.464;2023-08-31T12:15:17;17.90;99.90
48454;DHT22;34261;55.678;12.464;2023-08-31T12:17:51;17.90;99.90
48454;DHT22;34261;55.678;12.464;2023-08-31T12:20:25;17.90;99.90
48454;DHT22;34261;55.678;12.464;2023-08-31T12:23:01;17.90;99.90
48454;DHT22;34261;55.678;12.464;2023-08-31T12:25:38;18.00;99.90
48454;DHT22;34261;55.678;12.464;2023-08-31T12:28:29;17.90;99.90
48454;DHT22;34261;55.678;12.464;2023-08-31T12:31:02;17.90;99.90
48454;DHT22;34261;55.678;12.464;2023-08-31T12:33:41;17.70;99.90
48454;DHT22;34261;55.678;12.464;2023-08-31T12:36:23;17.60;99.90
48454;DHT22;34261;55.678;12.464;2023-08-31T12:38:56;17.60;99.90
48454;DHT22;34261;55.678;12.464;2023-08-31T12:41:28;17.60;99.90
48454;DHT22;34261;55.678;12.464;2023-08-31T12:43:56;17.60;99.90
48454;DHT22;34261;55.678;12.464;2023-08-31T12:46:23;17.60;99.90
48454;DHT22;34261;55.678;12.464;2023-08-31T12:48:49;17.70;99.90
48454;DHT22;34261;55.678;12.464;2023-08-31T12:51:16;17.70;99.90
48454;DHT22;34261;55.678;12.464;2023-08-31T12:53:42;17.70;99.90
48454;DHT22;34261;55.678;12.464;2023-08-31T12:56:09;17.70;99.90
48454;DHT22;34261;55.678;12.464;2023-08-31T12:58:35;17.60;99.90
48454;DHT22;34261;55.678;12.464;2023-08-31T13:01:01;17.60;99.90
48454;DHT22;34261;55.678;12.464;2023-08-31T13:03:27;17.70;99.90
48454;DHT22;34261;55.678;12.464;2023-08-31T13:05:53;17.60;99.90
48454;DHT22;34261;55.678;12.464;2023-08-31T13:08:22;17.60;99.90
48454;DHT22;34261;55.678;12.464;2023-08-31T13:11:00;17.60;99.90
48454;DHT22;34261;55.678;12.464;2023-08-31T13:13:59;17.60;99.90
48454;DHT22;34261;55.678;12.464;2023-08-31T13:16:47;17.60;99.90
48454;DHT22;34261;55.678;12.464;2023-08-31T13:19:18;17.60;99.90
48454;DHT22;34261;55.678;12.464;2023-08-31T13:21:55;17.70;99.90
48454;DHT22;34261;55.678;12.464;2023-08-31T13:24:47;17.70;99.90
48454;DHT22;34261;55.678;12.464;2023-08-31T13:27:16;17.70;99.90
48454;DHT22;34261;55.678;12.464;2023-08-31T13:29:43;17.70;99.90
48454;DHT22;34261;55.678;12.464;2023-08-31T13:32:09;17.80;99.90
48454;DHT22;34261;55.678;12.464;2023-08-31T13:34:43;17.80;99.90
48454;DHT22;34261;55.678;12.464;2023-08-31T13:37:09;17.90;99.90
48454;DHT22;34261;55.678;12.464;2023-08-31T13:39:36;17.80;99.90
48454;DHT22;34261;55.678;12.464;2023-08-31T13:42:02;17.90;99.90
48454;DHT22;34261;55.678;12.464;2023-08-31T13:44:29;17.90;99.90
48454;DHT22;34261;55.678;12.464;2023-08-31T13:46:55;18.00;99.90
48454;DHT22;34261;55.678;12.464;2023-08-31T13:49:20;18.00;99.90
48454;DHT22;34261;55.678;12.464;2023-08-31T13:51:46;18.00;99.90
48454;DHT22;34261;55.678;12.464;2023-08-31T13:54:12;18.10;99.90
48454;DHT22;34261;55.678;12.464;2023-08-31T13:56:37;18.10;99.90
48454;DHT22;34261;55.678;12.464;2023-08-31T13:59:03;18.10;99.90
48454;DHT22;34261;55.678;12.464;2023-08-31T14:01:30;18.10;99.90
48454;DHT22;34261;55.678;12.464;2023-08-31T14:03:57;18.20;99.90
48454;DHT22;34261;55.678;12.464;2023-08-31T14:06:23;18.20;99.90
48454;DHT22;34261;55.678;12.464;2023-08-31T14:08:50;18.30;99.90
48454;DHT22;34261;55.678;12.464;2023-08-31T14:11:15;18.30;99.90
48454;DHT22;34261;55.678;12.464;2023-08-31T14:13:43;18.40;99.90
48454;DHT22;34261;55.678;12.464;2023-08-31T14:16:08;18.50;99.90
48454;DHT22;34261;55.678;12.464;2023-08-31T14:18:34;18.60;99.90
48454;DHT22;34261;55.678;12.464;2023-08-31T14:21:00;18.50;99.90
48454;DHT22;34261;55.678;12.464;2023-08-31T14:23:26;18.50;99.90
48454;DHT22;34261;55.678;12.464;2023-08-31T14:25:52;18.50;99.90
48454;DHT22;34261;55.678;12.464;2023-08-31T14:28:18;18.50;99.90
48454;DHT22;34261;55.678;12.464;2023-08-31T14:30:45;18.50;99.90
48454;DHT22;34261;55.678;12.464;2023-08-31T14:33:11;18.40;99.90
48454;DHT22;34261;55.678;12.464;2023-08-31T14:35:37;18.40;99.90
48454;DHT22;34261;55.678;12.464;2023-08-31T14:38:04;18.40;99.90
48454;DHT22;34261;55.678;12.464;2023-08-31T14:40:30;18.40;99.90
48454;DHT22;34261;55.678;12.464;2023-08-31T14:42:57;18.40;99.90
48454;DHT22;34261;55.678;12.464;2023-08-31T14:45:23;18.50;99.90
48454;DHT22;34261;55.678;12.464;2023-08-31T14:47:48;18.50;99.90
48454;DHT22;34261;55.678;12.464;2023-08-31T14:50:14;18.60;99.90
48454;DHT22;34261;55.678;12.464;2023-08-31T14:52:40;18.60;99.90
48454;DHT22;34261;55.678;12.464;2023-08-31T14:55:06;18.60;99.90
48454;DHT22;34261;55.678;12.464;2023-08-31T14:57:35;18.70;99.90
48454;DHT22;34261;55.678;12.464;2023-08-31T15:00:01;18.70;99.90
48454;DHT22;34261;55.678;12.464;2023-08-31T15:02:31;18.80;99.90
48454;DHT22;34261;55.678;12.464;2023-08-31T15:04:57;18.80;99.90
48454;DHT22;34261;55.678;12.464;2023-08-31T15:07:24;18.80;99.90
48454;DHT22;34261;55.678;12.464;2023-08-31T15:09:52;18.90;99.90
48454;DHT22;34261;55.678;12.464;2023-08-31T15:12:19;18.90;99.90
48454;DHT22;34261;55.678;12.464;2023-08-31T15:14:44;18.80;99.90
48454;DHT22;34261;55.678;12.464;2023-08-31T15:17:10;18.80;99.90
48454;DHT22;34261;55.678;12.464;2023-08-31T15:19:36;18.80;99.90
48454;DHT22;34261;55.678;12.464;2023-08-31T15:22:01;18.70;99.90
48454;DHT22;34261;55.678;12.464;2023-08-31T15:24:29;18.70;99.90
48454;DHT22;34261;55.678;12.464;2023-08-31T15:26:55;18.60;99.90
48454;DHT22;34261;55.678;12.464;2023-08-31T15:29:22;18.60;99.90
48454;DHT22;34261;55.678;12.464;2023-08-31T15:31:47;18.50;99.90
48454;DHT22;34261;55.678;12.464;2023-08-31T15:34:13;18.60;99.90
48454;DHT22;34261;55.678;12.464;2023-08-31T15:36:39;18.50;99.90
48454;DHT22;34261;55.678;12.464;2023-08-31T15:39:08;18.40;99.90
48454;DHT22;34261;55.678;12.464;2023-08-31T15:41:38;18.40;99.90
48454;DHT22;34261;55.678;12.464;2023-08-31T15:44:03;18.40;99.90
48454;DHT22;34261;55.678;12.464;2023-08-31T15:46:32;18.30;99.90
48454;DHT22;34261;55.678;12.464;2023-08-31T15:48:58;18.20;99.90
48454;DHT22;34261;55.678;12.464;2023-08-31T15:51:24;18.20;99.90
48454;DHT22;34261;55.678;12.464;2023-08-31T15:53:49;18.20;99.90
48454;DHT22;34261;55.678;12.464;2023-08-31T15:56:15;18.10;99.90
48454;DHT22;34261;55.678;12.464;2023-08-31T15:58:41;18.10;99.90
48454;DHT22;34261;55.678;12.464;2023-08-31T16:01:11;18.10;99.90
48454;DHT22;34261;55.678;12.464;2023-08-31T16:03:37;18.10;99.90
48454;DHT22;34261;55.678;12.464;2023-08-31T16:06:04;18.00;99.90
48454;DHT22;34261;55.678;12.464;2023-08-31T16:08:30;18.00;99.90
48454;DHT22;34261;55.678;12.464;2023-08-31T16:10:57;18.00;99.90
48454;DHT22;34261;55.678;12.464;2023-08-31T16:13:28;18.00;99.90
48454;DHT22;34261;55.678;12.464;2023-08-31T16:15:54;17.90;99.90
48454;DHT22;34261;55.678;12.464;2023-08-31T16:18:35;17.90;99.90
48454;DHT22;34261;55.678;12.464;2023-08-31T16:21:03;17.80;99.90
48454;DHT22;34261;55.678;12.464;2023-08-31T16:23:34;17.80;99.90
48454;DHT22;34261;55.678;12.464;2023-08-31T16:47:19;17.60;99.90
48454;DHT22;34261;55.678;12.464;2023-08-31T16:49:45;17.50;99.90
48454;DHT22;34261;55.678;12.464;2023-08-31T16:52:11;17.50;99.90
48454;DHT22;34261;55.678;12.464;2023-08-31T16:54:37;17.50;99.90
48454;DHT22;34261;55.678;12.464;2023-08-31T16:57:03;17.50;99.90
48454;DHT22;34261;55.678;12.464;2023-08-31T16:59:28;17.40;99.90
48454;DHT22;34261;55.678;12.464;2023-08-31T17:01:56;17.40;99.90
48454;DHT22;34261;55.678;12.464;2023-08-31T17:04:24;17.40;99.90
48454;DHT22;34261;55.678;12.464;2023-08-31T17:07:41;17.40;99.90
48454;DHT22;34261;55.678;12.464;2023-08-31T17:10:17;17.40;99.90
48454;DHT22;34261;55.678;12.464;2023-08-31T17:12:44;17.30;99.90
48454;DHT22;34261;55.678;12.464;2023-08-31T17:15:10;17.20;99.90
48454;DHT22;34261;55.678;12.464;2023-08-31T17:17:55;17.10;99.90
48454;DHT22;34261;55.678;12.464;2023-08-31T17:20:20;17.10;99.90
48454;DHT22;34261;55.678;12.464;2023-08-31T17:22:46;17.00;99.90
48454;DHT22;34261;55.678;12.464;2023-08-31T17:25:13;17.00;99.90
48454;DHT22;34261;55.678;12.464;2023-08-31T17:27:41;16.90;99.90
48454;DHT22;34261;55.678;12.464;2023-08-31T17:30:11;16.90;99.90
48454;DHT22;34261;55.678;12.464;2023-08-31T17:32:42;16.80;99.90
48454;DHT22;34261;55.678;12.464;2023-08-31T17:35:08;16.80;99.90
48454;DHT22;34261;55.678;12.464;2023-08-31T17:37:37;16.80;99.90
48454;DHT22;34261;55.678;12.464;2023-08-31T17:40:07;16.70;99.90
48454;DHT22;34261;55.678;12.464;2023-08-31T17:42:35;16.60;99.90
48454;DHT22;34261;55.678;12.464;2023-08-31T17:45:05;16.50;99.90
48454;DHT22;34261;55.678;12.464;2023-08-31T17:47:31;16.50;99.90
48454;DHT22;34261;55.678;12.464;2023-08-31T17:49:58;16.40;99.90
48454;DHT22;34261;55.678;12.464;2023-08-31T17:52:23;16.50;99.90
48454;DHT22;34261;55.678;12.464;2023-08-31T17:54:50;16.30;99.90
48454;DHT22;34261;55.678;12.464;2023-08-31T17:57:16;16.30;99.90
48454;DHT22;34261;55.678;12.464;2023-08-31T17:59:42;16.30;99.90
48454;DHT22;34261;55.678;12.464;2023-08-31T18:02:11;16.30;99.90
48454;DHT22;34261;55.678;12.464;2023-08-31T18:04:36;16.30;99.90
48454;DHT22;34261;55.678;12.464;2023-08-31T18:07:03;16.20;99.90
48454;DHT22;34261;55.678;12.464;2023-08-31T18:09:31;16.10;99.90